Time;durP1;ratioP1;P1;durP2;ratioP2;P2;SDS_P1;SDS_P2;PMS_P1;PMS_P2;Temp;Humidity;BMP_temperature;BMP_pressure;BME280_temperature;BME280_humidity;BME280_pressure;Samples;Min_cycle;Max_cycle;Signal;HPM_P1;HPM_P2
2022/12/26 00:01:34;;;;;;;12.43;11.15;;;;;;;4.79;100.00;100727.50;4992959;28;20268;-47
2022/12/26 00:04:00;;;;;;;11.25;10.15;;;;;;;4.78;100.00;100736.34;4991342;28;20165;-45
2022/12/26 00:06:28;;;;;;;11.98;10.57;;;;;;;4.73;100.00;100736.44;4991597;28;20536;-40
2022/12/26 00:08:54;;;;;;;11.13;10.00;;;;;;;4.76;100.00;100743.47;4991531;28;20173;-42
2022/12/26 00:11:21;;;;;;;12.50;11.20;;;;;;;4.83;100.00;100739.84;4990645;28;20165;-41
2022/12/26 00:13:51;;;;;;;11.90;10.65;;;;;;;4.84;100.00;100717.69;4991484;28;20161;-43
2022/12/26 00:16:19;;;;;;;11.95;10.75;;;;;;;4.92;100.00;100714.91;4991289;28;20201;-43
2022/12/26 00:18:45;;;;;;;12.45;11.02;;;;;;;4.90;100.00;100716.72;4991572;28;20541;-45
2022/12/26 00:21:12;;;;;;;10.60;9.57;;;;;;;4.93;100.00;100721.97;4991747;28;20188;-46
2022/12/26 00:23:38;;;;;;;10.48;9.40;;;;;;;4.96;100.00;100719.25;4991172;28;20189;-42
2022/12/26 00:26:09;;;;;;;12.23;10.93;;;;;;;4.93;100.00;100716.66;4991472;28;20648;-42
2022/12/26 00:28:34;;;;;;;10.40;9.40;;;;;;;4.98;100.00;100711.25;4991099;28;20211;-43
2022/12/26 00:31:18;;;;;;;14.70;11.80;;;;;;;4.89;100.00;100720.25;4991210;28;20173;-43
2022/12/26 00:33:44;;;;;;;13.73;11.23;;;;;;;4.94;100.00;100721.03;4991549;28;20173;-43
2022/12/26 00:36:13;;;;;;;12.95;11.65;;;;;;;4.90;100.00;100712.28;4990792;28;20189;-46
2022/12/26 00:38:40;;;;;;;14.00;12.02;;;;;;;4.91;100.00;100705.19;4991243;28;20188;-44
2022/12/26 00:41:06;;;;;;;12.00;10.70;;;;;;;4.80;100.00;100696.53;4990903;28;20181;-47
2022/12/26 00:43:31;;;;;;;10.82;9.73;;;;;;;4.87;100.00;100699.03;4991051;28;20188;-41
2022/12/26 00:45:57;;;;;;;10.60;9.52;;;;;;;4.87;100.00;100703.47;4991268;28;20480;-43
2022/12/26 00:48:23;;;;;;;11.05;9.90;;;;;;;4.89;100.00;100697.25;4990866;28;20272;-43
2022/12/26 00:50:49;;;;;;;9.73;8.73;;;;;;;4.92;100.00;100701.66;4990943;28;20165;-43
2022/12/26 00:53:14;;;;;;;11.52;9.85;;;;;;;4.91;100.00;100699.88;4990804;28;20264;-43
2022/12/26 00:55:40;;;;;;;9.85;8.82;;;;;;;5.00;100.00;100696.19;4990857;28;20202;-42
2022/12/26 00:58:06;;;;;;;10.85;9.75;;;;;;;4.93;100.00;100693.63;4990837;28;20359;-41
2022/12/26 01:00:31;;;;;;;12.75;11.38;;;;;;;4.95;100.00;100696.28;4990802;28;20169;-41
2022/12/26 01:02:57;;;;;;;13.52;11.40;;;;;;;4.99;100.00;100694.44;4989653;28;20582;-43
2022/12/26 01:05:23;;;;;;;15.77;11.85;;;;;;;5.02;100.00;100692.59;4990984;28;20175;-44
2022/12/26 01:07:48;;;;;;;17.35;12.02;;;;;;;5.06;100.00;100688.97;4990927;28;20526;-42
2022/12/26 01:10:14;;;;;;;15.82;12.13;;;;;;;5.08;100.00;100687.19;4991076;28;20528;-41
2022/12/26 01:12:40;;;;;;;21.15;12.50;;;;;;;5.09;100.00;100693.34;4990738;28;20240;-43
2022/12/26 01:15:06;;;;;;;21.88;13.63;;;;;;;5.11;100.00;100702.19;4990787;28;20540;-44
2022/12/26 01:17:32;;;;;;;25.80;15.27;;;;;;;5.09;100.00;100702.19;4990752;28;20285;-45
2022/12/26 01:19:58;;;;;;;34.78;16.00;;;;;;;5.09;100.00;100701.31;4990823;28;20196;-42
2022/12/26 01:22:24;;;;;;;58.38;17.70;;;;;;;5.05;100.00;100697.88;4992409;28;20687;-43
2022/12/26 01:24:54;;;;;;;76.63;17.92;;;;;;;5.05;100.00;100704.94;4994950;28;20168;-42
2022/12/26 01:27:20;;;;;;;32.53;16.55;;;;;;;5.05;100.00;100687.25;4994119;28;20559;-46
2022/12/26 01:29:45;;;;;;;34.95;16.08;;;;;;;5.11;100.00;100691.56;4994312;28;20170;-44
2022/12/26 01:32:11;;;;;;;34.88;17.00;;;;;;;5.09;100.00;100698.66;4994146;28;20193;-43
2022/12/26 01:34:36;;;;;;;37.08;16.60;;;;;;;5.15;100.00;100690.59;5010137;28;20675;-42
2022/12/26 01:37:02;;;;;;;32.88;16.80;;;;;;;5.17;100.00;100688.78;5013836;28;20275;-43
2022/12/26 01:39:28;;;;;;;23.27;14.13;;;;;;;5.17;100.00;100696.75;5013803;28;20169;-44
2022/12/26 01:41:54;;;;;;;40.40;16.95;;;;;;;5.11;100.00;100689.78;5013809;28;20232;-48
2022/12/26 01:44:59;;;;;;;60.88;18.38;;;;;;;5.18;100.00;100700.28;5013726;28;20199;-43
2022/12/26 01:47:30;;;;;;;50.60;17.52;;;;;;;5.11;100.00;100696.88;5013842;28;20153;-44
2022/12/26 01:49:55;;;;;;;49.55;16.65;;;;;;;5.09;100.00;100704.84;5013767;28;20164;-43
2022/12/26 01:52:38;;;;;;;36.53;16.95;;;;;;;5.12;100.00;100703.94;5013404;28;20193;-42
2022/12/26 01:55:07;;;;;;;30.92;16.40;;;;;;;5.18;100.00;100708.25;5013699;28;20165;-43
2022/12/26 01:57:40;;;;;;;64.95;17.23;;;;;;;5.08;100.00;100702.25;5013514;28;20165;-46
2022/12/26 02:00:09;;;;;;;34.53;16.27;;;;;;;5.07;100.00;100689.84;5013519;28;20200;-43
2022/12/26 02:05:33;;;;;;;30.52;15.65;;;;;;;5.17;100.00;100707.38;5013526;28;20632;-45
2022/12/26 02:08:04;;;;;;;39.85;17.83;;;;;;;5.08;100.00;100700.47;5013482;28;20200;-42
2022/12/26 02:10:35;;;;;;;32.58;15.15;;;;;;;5.10;100.00;100701.31;5013300;28;20638;-43
2022/12/26 02:13:01;;;;;;;30.48;15.90;;;;;;;5.12;100.00;100714.56;5013290;28;20192;-41
2022/12/26 02:15:27;;;;;;;35.83;14.57;;;;;;;5.16;100.00;100710.97;5013264;28;20627;-41
2022/12/26 02:17:53;;;;;;;29.55;15.00;;;;;;;5.09;100.00;100710.16;5013101;28;20650;-41
2022/12/26 02:20:22;;;;;;;30.85;13.95;;;;;;;5.11;100.00;100703.03;5013241;28;20632;-43
2022/12/26 02:23:12;;;;;;;23.90;13.48;;;;;;;5.16;100.00;100709.19;5011743;28;20192;-43
2022/12/26 02:26:02;;;;;;;21.92;12.70;;;;;;;5.20;100.00;100706.44;5008470;28;20244;-45
2022/12/26 02:28:43;;;;;;;19.45;11.50;;;;;;;5.24;100.00;100706.38;4998795;28;20644;-47
2022/12/26 02:31:17;;;;;;;24.77;12.63;;;;;;;5.19;100.00;100702.06;5002707;28;20192;-45
2022/12/26 02:34:08;;;;;;;18.17;10.63;;;;;;;5.17;100.00;100702.06;4996123;28;20201;-46
2022/12/26 02:36:52;;;;;;;18.23;10.43;;;;;;;5.28;100.00;100702.75;4999766;28;20235;-44
2022/12/26 02:39:34;;;;;;;19.35;10.60;;;;;;;5.24;100.00;100705.50;5003383;28;20235;-46
2022/12/26 02:42:25;;;;;;;19.83;10.73;;;;;;;5.23;100.00;100701.97;4997906;28;20283;-46
2022/12/26 02:48:27;;;;;;;19.23;10.52;;;;;;;5.32;100.00;100707.09;5006502;28;20286;-44
2022/12/26 03:14:24;;;;;;;26.85;12.77;;;;;;;5.32;100.00;100706.25;5001849;28;20667;-42
2022/12/26 03:19:58;;;;;;;31.20;14.80;;;;;;;5.33;100.00;100705.31;5001958;28;20188;-46
2022/12/26 03:22:32;;;;;;;24.83;12.70;;;;;;;5.37;100.00;100721.16;4998218;28;20343;-44
2022/12/26 03:27:46;;;;;;;31.17;14.02;;;;;;;5.32;100.00;100707.09;4997605;28;20312;-44
2022/12/26 03:32:57;;;;;;;26.63;14.02;;;;;;;5.40;100.00;100714.03;4998876;28;20572;-44
2022/12/26 03:35:26;;;;;;;29.08;13.43;;;;;;;5.45;100.00;100713.06;5002888;28;20614;-44
2022/12/26 03:38:06;;;;;;;32.33;14.60;;;;;;;5.43;100.00;100720.19;5000555;28;20181;-44
2022/12/26 04:46:19;;;;;;;47.50;18.88;;;;;;;5.57;100.00;100688.03;5001827;28;20644;-45
2022/12/26 04:51:32;;;;;;;54.88;19.73;;;;;;;5.59;100.00;100696.84;4996279;28;20179;-44
2022/12/26 04:53:57;;;;;;;49.85;20.13;;;;;;;5.61;100.00;100691.50;4995981;28;20515;-45
2022/12/26 04:56:23;;;;;;;49.63;18.92;;;;;;;5.61;100.00;100686.19;4998931;28;20302;-45
2022/12/26 04:58:48;;;;;;;48.63;19.23;;;;;;;5.63;100.00;100695.00;4997238;28;20181;-45
2022/12/26 05:09:32;;;;;;;42.53;18.70;;;;;;;5.66;100.00;100698.47;5002008;28;20181;-46
2022/12/26 05:11:58;;;;;;;51.20;19.45;;;;;;;5.65;100.00;100698.53;4997048;28;20197;-47
2022/12/26 05:14:23;;;;;;;47.67;19.35;;;;;;;5.66;100.00;100693.16;4995868;28;20204;-46
2022/12/26 05:30:30;;;;;;;40.97;17.80;;;;;;;5.74;100.00;100677.06;5000363;28;20184;-45
2022/12/26 05:35:39;;;;;;;43.30;17.98;;;;;;;5.78;100.00;100689.38;4997946;28;20232;-45
2022/12/26 05:38:06;;;;;;;48.88;19.52;;;;;;;5.74;100.00;100691.22;4996864;28;20209;-47
2022/12/26 05:40:31;;;;;;;47.65;18.50;;;;;;;5.74;100.00;100680.59;4993514;28;20177;-46
2022/12/26 05:42:57;;;;;;;48.45;19.23;;;;;;;5.75;100.00;100685.00;5001657;28;20234;-46
2022/12/26 05:45:23;;;;;;;47.90;18.48;;;;;;;5.74;100.00;100685.91;5002188;28;20661;-45
2022/12/26 05:47:48;;;;;;;51.00;19.33;;;;;;;5.76;100.00;100684.09;4995532;28;20219;-44
2022/12/26 05:50:14;;;;;;;46.03;19.65;;;;;;;5.77;100.00;100688.53;4999864;28;20546;-44
2022/12/26 05:52:39;;;;;;;50.45;18.45;;;;;;;5.74;100.00;100682.38;4995858;28;20783;-44
2022/12/26 05:55:05;;;;;;;45.42;18.25;;;;;;;5.74;100.00;100680.59;5002845;28;20185;-43
2022/12/26 05:57:31;;;;;;;43.75;17.20;;;;;;;5.75;100.00;100687.66;4998040;28;20205;-43
2022/12/26 05:59:57;;;;;;;48.45;19.42;;;;;;;5.75;100.00;100679.69;4996565;28;20272;-43
2022/12/26 06:02:22;;;;;;;42.13;17.35;;;;;;;5.79;100.00;100693.78;4995602;28;20332;-44
2022/12/26 06:04:47;;;;;;;46.10;18.08;;;;;;;5.81;100.00;100681.34;5000114;28;20209;-45
2022/12/26 06:07:13;;;;;;;45.28;18.15;;;;;;;5.85;100.00;100691.00;4995284;28;20181;-42
2022/12/26 06:09:38;;;;;;;47.22;18.58;;;;;;;5.80;100.00;100687.56;5003243;28;20239;-46
2022/12/26 06:12:04;;;;;;;41.58;17.15;;;;;;;5.84;100.00;100691.03;5000292;28;20188;-46
2022/12/26 06:14:29;;;;;;;47.53;17.60;;;;;;;5.82;100.00;100690.22;4999312;28;20196;-46
2022/12/26 06:16:55;;;;;;;45.92;17.70;;;;;;;5.85;100.00;100690.13;5002840;28;20219;-45
2022/12/26 06:19:21;;;;;;;46.53;17.70;;;;;;;5.84;100.00;100694.59;5001610;28;20185;-45
2022/12/26 06:21:46;;;;;;;46.25;18.30;;;;;;;5.83;100.00;100686.63;5005461;28;20204;-45
2022/12/26 06:24:12;;;;;;;49.35;19.13;;;;;;;5.86;100.00;100699.84;5003671;28;20598;-46
2022/12/26 06:26:39;;;;;;;41.03;17.88;;;;;;;5.88;100.00;100693.63;4996735;28;20563;-45
2022/12/26 06:29:05;;;;;;;46.78;18.48;;;;;;;5.89;100.00;100708.66;4999899;28;20276;-45
2022/12/26 06:31:31;;;;;;;41.85;17.98;;;;;;;5.90;100.00;100701.53;5009035;28;20353;-45
2022/12/26 06:33:57;;;;;;;43.67;17.92;;;;;;;5.90;100.00;100706.84;4997627;28;20168;-45
2022/12/26 06:36:24;;;;;;;47.28;18.08;;;;;;;5.88;100.00;100690.06;5001722;28;20331;-43
2022/12/26 06:38:50;;;;;;;40.53;16.08;;;;;;;5.92;100.00;100687.28;5001222;28;20307;-44
2022/12/26 06:41:19;;;;;;;41.45;16.55;;;;;;;5.92;100.00;100697.06;4997959;28;20185;-44
2022/12/26 06:43:44;;;;;;;43.42;16.13;;;;;;;5.93;100.00;100704.16;5000551;28;20212;-44
2022/12/26 06:46:14;;;;;;;44.38;17.05;;;;;;;5.90;100.00;100693.56;5002708;28;20184;-45
2022/12/26 06:48:39;;;;;;;28.88;13.98;;;;;;;5.96;100.00;100699.66;4998749;28;20180;-45
2022/12/26 06:51:08;;;;;;;39.72;15.88;;;;;;;5.92;100.00;100687.28;5001090;28;20545;-43
2022/12/26 06:53:33;;;;;;;39.88;15.48;;;;;;;5.93;100.00;100699.69;4998484;28;20201;-46
2022/12/26 06:56:29;;;;;;;38.80;16.15;;;;;;;5.89;100.00;100707.78;5000296;28;20676;-44
2022/12/26 06:58:57;;;;;;;33.58;14.80;;;;;;;5.96;100.00;100709.41;4984277;28;20305;-45
2022/12/26 07:01:23;;;;;;;39.22;16.10;;;;;;;5.96;100.00;100701.44;5007043;28;20686;-44
2022/12/26 07:03:51;;;;;;;40.05;16.13;;;;;;;5.92;100.00;100713.00;5007328;28;20177;-43
2022/12/26 07:06:27;;;;;;;38.85;16.42;;;;;;;5.95;100.00;100699.72;5004363;28;20225;-44
2022/12/26 07:08:56;;;;;;;41.80;16.08;;;;;;;5.94;100.00;100689.94;5001597;28;20166;-44
2022/12/26 07:11:24;;;;;;;46.08;16.95;;;;;;;5.94;100.00;100692.59;4996987;28;20276;-44
2022/12/26 07:13:51;;;;;;;42.53;17.10;;;;;;;5.95;100.00;100697.06;4995250;28;20200;-43
2022/12/26 07:16:17;;;;;;;38.97;16.55;;;;;;;5.91;100.00;100696.19;5003937;28;20565;-44
2022/12/26 07:18:42;;;;;;;41.13;16.45;;;;;;;5.93;100.00;100698.81;4997020;28;20181;-43
2022/12/26 07:21:11;;;;;;;38.85;16.23;;;;;;;5.97;100.00;100695.22;4995073;28;20553;-47
2022/12/26 07:23:36;;;;;;;42.10;16.67;;;;;;;5.92;100.00;100697.94;5002355;28;20216;-44
2022/12/26 07:26:02;;;;;;;40.92;16.67;;;;;;;5.92;100.00;100716.53;5003587;28;20235;-45
2022/12/26 07:28:28;;;;;;;30.63;14.65;;;;;;;6.01;100.00;100715.50;5008121;28;20404;-45
2022/12/26 07:30:53;;;;;;;41.67;17.30;;;;;;;5.97;100.00;100709.41;5000448;28;20286;-46
2022/12/26 07:33:19;;;;;;;42.00;17.15;;;;;;;5.97;100.00;100721.81;5011892;28;20702;-44
2022/12/26 07:35:45;;;;;;;40.65;17.38;;;;;;;5.95;100.00;100713.00;5002262;28;20679;-45
2022/12/26 07:38:11;;;;;;;41.50;17.50;;;;;;;5.96;100.00;100714.75;4998979;28;20518;-46
2022/12/26 07:40:37;;;;;;;40.97;18.02;;;;;;;5.95;100.00;100705.91;4997832;28;20657;-47
2022/12/26 07:43:03;;;;;;;37.75;16.27;;;;;;;5.97;100.00;100704.06;5000791;28;20646;-44
2022/12/26 07:45:28;;;;;;;38.00;16.40;;;;;;;6.01;100.00;100714.63;5000739;28;20207;-44
2022/12/26 07:47:55;;;;;;;44.55;17.30;;;;;;;6.00;100.00;100727.06;5000731;28;20196;-45
2022/12/26 07:50:25;;;;;;;34.95;16.40;;;;;;;6.05;100.00;100725.16;5000060;28;20283;-44
2022/12/26 07:52:51;;;;;;;41.10;18.30;;;;;;;6.03;100.00;100723.47;4997916;28;20213;-47
2022/12/26 07:55:17;;;;;;;44.10;17.85;;;;;;;6.03;100.00;100720.81;4997921;28;20219;-44
2022/12/26 07:57:42;;;;;;;37.78;17.70;;;;;;;6.11;100.00;100719.72;4993954;28;20233;-42
2022/12/26 08:00:09;;;;;;;41.78;18.70;;;;;;;6.08;100.00;100729.53;4992447;28;20173;-47
2022/12/26 08:02:37;;;;;;;48.13;19.98;;;;;;;6.12;100.00;100720.59;4997568;28;20208;-47
2022/12/26 08:05:03;;;;;;;48.88;20.38;;;;;;;6.09;100.00;100724.22;4999425;28;20234;-45
2022/12/26 08:07:29;;;;;;;44.33;20.17;;;;;;;6.08;100.00;100713.59;4994838;28;20643;-47
2022/12/26 08:09:54;;;;;;;49.33;21.15;;;;;;;6.09;100.00;100716.22;4999123;28;20181;-44
2022/12/26 08:12:20;;;;;;;43.55;19.45;;;;;;;6.12;100.00;100726.81;4999859;28;20208;-46
2022/12/26 08:14:46;;;;;;;45.83;19.75;;;;;;;6.11;100.00;100718.88;5003223;28;20288;-48
2022/12/26 08:17:13;;;;;;;50.25;22.25;;;;;;;6.16;100.00;100716.97;4988916;28;20212;-45
2022/12/26 08:19:38;;;;;;;51.70;21.25;;;;;;;6.16;100.00;100728.47;4997640;28;20174;-46
2022/12/26 08:22:04;;;;;;;45.70;21.15;;;;;;;6.20;100.00;100718.66;4999836;28;20231;-47
2022/12/26 08:24:29;;;;;;;50.80;22.48;;;;;;;6.21;100.00;100714.19;4999511;28;20235;-46
2022/12/26 08:26:55;;;;;;;54.78;23.35;;;;;;;6.22;100.00;100705.31;5011889;28;20220;-46
2022/12/26 08:29:20;;;;;;;50.00;23.25;;;;;;;6.23;100.00;100697.31;4997146;28;20287;-45
2022/12/26 08:31:46;;;;;;;56.22;24.45;;;;;;;6.25;100.00;100703.47;5001011;28;20256;-46
2022/12/26 08:34:12;;;;;;;56.55;25.13;;;;;;;6.28;100.00;100691.91;4997382;28;20181;-45
2022/12/26 08:36:38;;;;;;;58.88;25.15;;;;;;;6.28;100.00;100683.91;5002321;28;20687;-46
2022/12/26 08:39:03;;;;;;;50.22;23.30;;;;;;;6.31;100.00;100689.16;5000271;28;20181;-46
2022/12/26 08:41:29;;;;;;;55.70;24.38;;;;;;;6.33;100.00;100692.66;4994297;28;20184;-46
2022/12/26 08:43:54;;;;;;;56.83;25.58;;;;;;;6.32;100.00;100701.53;4994559;28;20374;-45
2022/12/26 08:46:20;;;;;;;57.22;25.05;;;;;;;6.33;100.00;100697.97;4992593;28;20195;-46
2022/12/26 08:48:46;;;;;;;53.72;24.10;;;;;;;6.34;100.00;100697.94;4994936;28;20228;-46
2022/12/26 08:51:15;;;;;;;49.25;23.52;;;;;;;6.37;100.00;100692.53;4997430;28;20675;-47
2022/12/26 08:53:41;;;;;;;52.53;23.42;;;;;;;6.36;100.00;100695.22;4994228;28;20233;-46
2022/12/26 08:56:09;;;;;;;57.72;24.80;;;;;;;6.42;100.00;100700.41;5002626;28;20682;-48
2022/12/26 08:58:35;;;;;;;54.25;24.33;;;;;;;6.42;100.00;100691.56;4997723;28;20292;-45
2022/12/26 09:01:08;;;;;;;51.88;24.33;;;;;;;6.45;100.00;100689.72;5002983;28;20198;-47
2022/12/26 09:03:33;;;;;;;55.00;25.10;;;;;;;6.47;100.00;100695.88;4999745;28;20235;-46
2022/12/26 09:05:59;;;;;;;55.83;25.52;;;;;;;6.53;100.00;100685.06;4999281;28;20299;-46
2022/12/26 09:08:25;;;;;;;52.28;25.45;;;;;;;6.54;100.00;100677.97;4998935;28;20208;-46
2022/12/26 09:10:50;;;;;;;56.42;25.35;;;;;;;6.55;100.00;100693.88;4998446;28;20670;-47
2022/12/26 09:13:18;;;;;;;53.92;26.13;;;;;;;6.57;100.00;100681.41;4995751;28;20584;-45
2022/12/26 09:15:43;;;;;;;53.97;25.55;;;;;;;6.58;100.00;100687.63;4999587;28;20212;-44
2022/12/26 09:18:09;;;;;;;51.20;25.65;;;;;;;6.61;100.00;100679.56;4995775;28;20181;-44
2022/12/26 09:20:35;;;;;;;52.05;25.60;;;;;;;6.63;100.00;100680.41;4997416;28;20174;-46
2022/12/26 09:23:00;;;;;;;48.60;25.50;;;;;;;6.71;100.00;100689.09;4999096;28;20239;-46
2022/12/26 09:25:26;;;;;;;51.55;26.17;;;;;;;6.69;100.00;100676.72;5000286;28;20509;-44
2022/12/26 09:27:52;;;;;;;53.10;26.30;;;;;;;6.69;100.00;100674.94;4997060;28;20184;-45
2022/12/26 09:30:19;;;;;;;53.08;25.90;;;;;;;6.71;100.00;100677.53;4996740;28;20177;-46
2022/12/26 09:32:45;;;;;;;53.97;25.65;;;;;;;6.70;100.00;100671.34;4999179;28;20208;-46
2022/12/26 09:35:10;;;;;;;45.38;24.67;;;;;;;6.72;100.00;100674.84;4998189;28;20165;-43
2022/12/26 09:37:35;;;;;;;47.92;24.30;;;;;;;6.70;100.00;100668.69;4997046;28;20201;-46
2022/12/26 09:40:03;;;;;;;45.50;24.73;;;;;;;6.75;100.00;100668.56;4993372;28;20260;-45
2022/12/26 09:42:49;;;;;;;45.60;23.40;;;;;;;6.80;100.00;100672.00;4998823;28;20691;-46
2022/12/26 09:45:17;;;;;;;45.00;23.88;;;;;;;6.74;100.00;100670.38;5002852;28;20207;-46
2022/12/26 09:48:00;;;;;;;45.10;23.55;;;;;;;6.78;100.00;100663.19;5005224;28;20179;-46
2022/12/26 09:50:36;;;;;;;43.45;23.63;;;;;;;6.82;100.00;100670.16;5002347;28;20172;-46
2022/12/26 09:53:12;;;;;;;45.80;24.63;;;;;;;6.83;100.00;100649.75;5000256;28;20252;-45
2022/12/26 09:56:07;;;;;;;44.10;24.27;;;;;;;6.89;100.00;100655.78;5002624;28;20213;-45
2022/12/26 09:58:35;;;;;;;49.85;25.42;;;;;;;6.91;100.00;100669.06;4999904;28;20208;-46
2022/12/26 10:01:19;;;;;;;45.80;25.25;;;;;;;6.94;100.00;100669.00;5000072;28;20217;-46
2022/12/26 10:04:13;;;;;;;46.92;25.52;;;;;;;6.96;100.00;100668.03;5001081;28;20292;-46
2022/12/26 10:06:51;;;;;;;44.50;25.88;;;;;;;7.00;100.00;100664.38;4995136;28;20280;-46
2022/12/26 10:09:43;;;;;;;39.42;24.58;;;;;;;7.06;100.00;100667.78;5000971;28;20252;-46
2022/12/26 10:12:25;;;;;;;42.38;26.13;;;;;;;7.00;100.00;100661.72;5003085;28;20251;-46
2022/12/26 10:15:12;;;;;;;46.30;26.92;;;;;;;7.01;100.00;100649.25;5003801;28;20616;-46
2022/12/26 10:17:47;;;;;;;42.80;25.70;;;;;;;7.06;100.00;100665.13;5008827;28;20205;-46
2022/12/26 10:20:29;;;;;;;42.38;26.00;;;;;;;7.06;100.00;100655.34;5006524;28;20242;-45
2022/12/26 10:23:14;;;;;;;43.38;27.42;;;;;;;7.03;100.00;100652.75;4997958;28;20205;-44
2022/12/26 10:26:06;;;;;;;51.05;27.40;;;;;;;7.08;100.00;100634.84;4998570;28;20181;-44
2022/12/26 10:28:39;;;;;;;39.67;26.73;;;;;;;7.17;100.00;100639.97;5002792;28;20246;-46
2022/12/26 10:31:12;;;;;;;44.80;26.73;;;;;;;7.21;100.00;100646.06;5000677;28;20195;-46
2022/12/26 10:33:47;;;;;;;40.05;26.00;;;;;;;7.21;100.00;100636.28;4999176;28;20217;-44
2022/12/26 10:36:30;;;;;;;37.63;25.90;;;;;;;7.23;100.00;100630.91;5001889;28;20572;-46
2022/12/26 10:38:58;;;;;;;34.25;24.90;;;;;;;7.16;100.00;100632.88;5002091;28;20615;-46
2022/12/26 10:41:36;;;;;;;36.70;24.70;;;;;;;7.21;100.00;100627.41;5001228;28;20172;-45
2022/12/26 10:44:01;;;;;;;36.00;24.33;;;;;;;7.22;100.00;100615.84;5001751;28;20250;-46
2022/12/26 10:46:40;;;;;;;35.20;24.10;;;;;;;7.23;100.00;100612.25;4998517;28;20708;-44
2022/12/26 10:49:10;;;;;;;33.05;24.00;;;;;;;7.25;100.00;100606.88;5011638;28;20181;-46
2022/12/26 10:51:37;;;;;;;31.80;23.05;;;;;;;7.23;100.00;100609.59;5000376;28;20196;-44
2022/12/26 10:54:02;;;;;;;30.20;22.05;;;;;;;7.28;100.00;100609.47;5007198;28;20693;-45
2022/12/26 10:56:30;;;;;;;32.00;22.02;;;;;;;7.41;100.00;100600.19;5001624;28;20289;-46
2022/12/26 10:59:03;;;;;;;28.70;21.48;;;;;;;7.45;100.00;100596.53;5001669;28;20255;-45
2022/12/26 11:01:37;;;;;;;27.00;20.10;;;;;;;7.49;100.00;100576.84;5005749;28;20177;-47
2022/12/26 11:04:15;;;;;;;26.33;19.65;;;;;;;7.51;100.00;100600.81;5003250;28;20331;-45
2022/12/26 11:06:42;;;;;;;25.33;20.02;;;;;;;7.52;100.00;100583.88;4996691;28;20542;-45
2022/12/26 11:09:29;;;;;;;24.70;19.50;;;;;;;7.51;100.00;100585.69;5013466;28;20591;-47
2022/12/26 11:11:55;;;;;;;24.90;19.73;;;;;;;7.53;100.00;100586.50;4996972;28;20221;-45
2022/12/26 11:14:32;;;;;;;23.92;18.17;;;;;;;7.55;100.00;100571.34;5007086;28;20184;-46
2022/12/26 11:17:03;;;;;;;27.67;17.55;;;;;;;7.60;100.00;100573.88;5005832;28;20232;-43
2022/12/26 11:19:38;;;;;;;22.05;17.48;;;;;;;7.58;100.00;100573.03;5004337;28;20181;-45
2022/12/26 11:22:26;;;;;;;21.13;16.90;;;;;;;7.68;100.00;100566.53;5001173;28;20223;-45
2022/12/26 11:25:26;;;;;;;19.90;16.33;;;;;;;7.61;100.00;100570.31;5002038;28;20494;-45
2022/12/26 11:27:57;;;;;;;22.67;16.50;;;;;;;7.59;100.00;100559.69;4990047;28;20204;-44
2022/12/26 11:30:30;;;;;;;20.60;16.38;;;;;;;7.62;100.00;100550.72;4999908;28;20280;-44
2022/12/26 11:33:24;;;;;;;23.75;16.85;;;;;;;7.62;100.00;100546.25;5010770;28;20201;-44
2022/12/26 11:36:04;;;;;;;20.90;15.20;;;;;;;7.64;100.00;100532.88;4994504;28;20237;-44
2022/12/26 11:38:35;;;;;;;20.00;15.48;;;;;;;7.64;100.00;100524.88;4999035;28;20204;-44
2022/12/26 11:43:49;;;;;;;20.27;15.68;;;;;;;7.69;100.00;100516.72;4998929;28;20411;-45
2022/12/26 11:46:15;;;;;;;19.50;15.48;;;;;;;7.74;100.00;100509.44;5000890;28;20735;-45
2022/12/26 11:48:40;;;;;;;20.88;16.27;;;;;;;7.72;100.00;100506.84;5000654;28;20264;-45
2022/12/26 11:51:08;;;;;;;20.40;16.08;;;;;;;7.69;100.00;100511.41;4998607;28;20188;-45
2022/12/26 11:53:33;;;;;;;18.65;14.93;;;;;;;7.68;100.00;100504.31;4996624;28;20193;-44
2022/12/26 11:56:05;;;;;;;21.88;15.13;;;;;;;7.74;100.00;100498.78;5000467;28;20192;-45
2022/12/26 11:58:32;;;;;;;18.83;14.43;;;;;;;7.67;100.00;100498.09;4999284;28;20244;-43
2022/12/26 12:00:58;;;;;;;18.85;14.38;;;;;;;7.67;100.00;100481.25;4998176;28;20185;-46
2022/12/26 12:03:32;;;;;;;18.45;15.32;;;;;;;7.65;100.00;100491.94;5004014;28;20204;-45
2022/12/26 12:06:10;;;;;;;20.20;15.13;;;;;;;7.63;100.00;100477.78;5001853;28;20188;-44
2022/12/26 12:09:00;;;;;;;20.02;15.02;;;;;;;7.68;100.00;100485.66;4999195;28;20172;-45
2022/12/26 12:11:39;;;;;;;18.67;14.60;;;;;;;7.62;100.00;100484.06;4998936;28;20176;-44
2022/12/26 12:14:17;;;;;;;19.40;13.60;;;;;;;7.63;100.00;100472.44;5006988;28;20263;-45
2022/12/26 12:17:06;;;;;;;21.95;14.68;;;;;;;7.61;100.00;100458.31;4999875;28;20247;-46
2022/12/26 12:19:46;;;;;;;19.13;14.35;;;;;;;7.56;100.00;100457.56;4996771;28;20557;-45
2022/12/26 12:22:44;;;;;;;19.00;15.30;;;;;;;7.55;100.00;100453.19;4995217;28;20208;-46
2022/12/26 12:25:37;;;;;;;19.15;14.60;;;;;;;7.50;100.00;100455.09;4999168;28;20327;-45
2022/12/26 12:28:11;;;;;;;20.70;14.77;;;;;;;7.57;100.00;100438.88;4999252;28;20506;-44
2022/12/26 12:30:58;;;;;;;19.33;15.07;;;;;;;7.53;100.00;100452.34;4998989;28;20181;-44
2022/12/26 12:33:43;;;;;;;24.13;14.85;;;;;;;7.50;100.00;100434.66;5018892;28;20267;-44
2022/12/26 12:36:20;;;;;;;19.20;14.25;;;;;;;7.49;100.00;100432.91;4999091;28;20587;-44
2022/12/26 12:39:15;;;;;;;21.42;14.82;;;;;;;7.54;100.00;100443.44;5002850;28;20184;-43
2022/12/26 12:42:01;;;;;;;20.65;14.40;;;;;;;7.54;100.00;100436.31;4998922;28;20219;-45
2022/12/26 12:44:45;;;;;;;18.17;13.02;;;;;;;7.53;100.00;100449.69;4994677;28;20372;-44
2022/12/26 12:47:48;;;;;;;17.85;13.52;;;;;;;7.55;100.00;100445.19;5000446;28;20215;-44
2022/12/26 12:50:21;;;;;;;16.83;12.98;;;;;;;7.60;100.00;100433.44;4996941;28;20193;-44
2022/12/26 12:53:11;;;;;;;17.15;11.77;;;;;;;7.58;100.00;100426.41;4996464;28;20567;-45
2022/12/26 12:55:57;;;;;;;15.48;11.25;;;;;;;7.56;100.00;100433.59;5001423;28;20196;-45
2022/12/26 12:58:28;;;;;;;15.52;10.10;;;;;;;7.53;100.00;100412.38;5006775;28;20549;-44
2022/12/26 13:01:17;;;;;;;11.35;8.30;;;;;;;7.56;100.00;100428.25;4998776;28;20260;-46
2022/12/26 13:03:53;;;;;;;10.93;6.43;;;;;;;7.55;100.00;100427.38;5003170;28;20192;-44
2022/12/26 13:06:37;;;;;;;9.68;5.85;;;;;;;7.65;100.00;100443.94;5008649;28;20185;-46
2022/12/26 13:09:34;;;;;;;7.00;5.07;;;;;;;7.57;100.00;100438.88;4994914;28;20260;-46
2022/12/26 13:12:03;;;;;;;6.28;4.13;;;;;;;7.56;100.00;100430.91;4998071;28;20287;-45
2022/12/26 13:14:39;;;;;;;6.63;3.63;;;;;;;7.47;100.00;100444.56;4999062;28;20188;-46
2022/12/26 13:17:16;;;;;;;5.97;2.58;;;;;;;7.34;100.00;100439.59;4998093;28;20640;-45
2022/12/26 13:20:13;;;;;;;8.25;2.10;;;;;;;7.20;100.00;100442.69;5004378;28;20207;-45
2022/12/26 13:25:42;;;;;;;8.90;1.48;;;;;;;7.17;100.00;100450.78;5006285;28;20636;-45
2022/12/26 13:28:17;;;;;;;7.40;2.28;;;;;;;7.16;100.00;100456.16;5001849;28;20194;-46
2022/12/26 13:30:42;;;;;;;9.70;1.92;;;;;;;7.05;100.00;100455.63;5005679;28;20185;-46
2022/12/26 13:33:14;;;;;;;5.38;1.63;;;;;;;6.96;100.00;100451.44;4998847;28;20567;-46
2022/12/26 13:35:59;;;;;;;8.00;1.73;;;;;;;6.93;100.00;100467.47;5004433;28;20196;-44
2022/12/26 13:38:57;;;;;;;7.05;1.60;;;;;;;6.80;100.00;100472.31;5003395;28;20427;-45
2022/12/26 13:44:19;;;;;;;9.50;1.70;;;;;;;6.67;100.00;100460.22;4933556;28;21001;-45
2022/12/26 13:46:44;;;;;;;12.45;2.05;;;;;;;6.69;100.00;100464.63;5000741;28;20267;-45
2022/12/26 13:49:28;;;;;;;11.77;2.55;;;;;;;6.67;100.00;100485.09;5003177;28;20173;-45